sensor_id;sensor_type;location;lat;lon;timestamp;P1;durP1;ratioP1;P2;durP2;ratioP2
7142;SDS011;3613;48.902;9.204;2023-04-07T00:00:29;15.00;;;9.70;;
7142;SDS011;3613;48.902;9.204;2023-04-07T00:02:55;15.70;;;10.80;;
7142;SDS011;3613;48.902;9.204;2023-04-07T00:05:21;16.23;;;10.53;;
7142;SDS011;3613;48.902;9.204;2023-04-07T00:07:47;17.63;;;11.57;;
7142;SDS011;3613;48.902;9.204;2023-04-07T00:10:13;16.10;;;10.23;;
7142;SDS011;3613;48.902;9.204;2023-04-07T00:12:41;17.50;;;11.87;;
7142;SDS011;3613;48.902;9.204;2023-04-07T00:15:07;15.23;;;10.73;;
7142;SDS011;3613;48.902;9.204;2023-04-07T00:17:33;16.30;;;10.30;;
7142;SDS011;3613;48.902;9.204;2023-04-07T00:19:59;18.70;;;9.90;;
7142;SDS011;3613;48.902;9.204;2023-04-07T00:22:25;14.33;;;9.97;;
7142;SDS011;3613;48.902;9.204;2023-04-07T00:24:51;15.80;;;10.17;;
7142;SDS011;3613;48.902;9.204;2023-04-07T00:27:17;15.90;;;11.20;;
7142;SDS011;3613;48.902;9.204;2023-04-07T00:29:43;18.00;;;10.97;;
7142;SDS011;3613;48.902;9.204;2023-04-07T00:32:10;15.63;;;10.77;;
7142;SDS011;3613;48.902;9.204;2023-04-07T00:34:36;15.20;;;10.67;;
7142;SDS011;3613;48.902;9.204;2023-04-07T00:37:02;16.10;;;10.90;;
7142;SDS011;3613;48.902;9.204;2023-04-07T00:39:31;16.27;;;10.77;;
7142;SDS011;3613;48.902;9.204;2023-04-07T00:41:56;17.83;;;10.73;;
7142;SDS011;3613;48.902;9.204;2023-04-07T00:44:22;17.23;;;11.17;;
7142;SDS011;3613;48.902;9.204;2023-04-07T00:46:48;14.90;;;9.77;;
7142;SDS011;3613;48.902;9.204;2023-04-07T00:49:14;16.23;;;9.60;;
7142;SDS011;3613;48.902;9.204;2023-04-07T00:51:43;14.00;;;9.60;;
7142;SDS011;3613;48.902;9.204;2023-04-07T00:54:10;17.37;;;10.33;;
7142;SDS011;3613;48.902;9.204;2023-04-07T00:56:38;16.47;;;9.93;;
7142;SDS011;3613;48.902;9.204;2023-04-07T00:59:04;14.30;;;9.83;;
7142;SDS011;3613;48.902;9.204;2023-04-07T01:01:39;15.20;;;9.80;;
7142;SDS011;3613;48.902;9.204;2023-04-07T01:04:17;16.93;;;9.80;;
7142;SDS011;3613;48.902;9.204;2023-04-07T01:06:47;17.77;;;9.73;;
7142;SDS011;3613;48.902;9.204;2023-04-07T01:09:17;14.60;;;10.37;;
7142;SDS011;3613;48.902;9.204;2023-04-07T01:12:01;13.97;;;9.20;;
7142;SDS011;3613;48.902;9.204;2023-04-07T01:14:41;13.53;;;9.17;;
7142;SDS011;3613;48.902;9.204;2023-04-07T01:17:14;14.40;;;9.13;;
7142;SDS011;3613;48.902;9.204;2023-04-07T01:22:45;14.20;;;9.30;;
7142;SDS011;3613;48.902;9.204;2023-04-07T01:31:11;12.80;;;8.87;;
7142;SDS011;3613;48.902;9.204;2023-04-07T01:33:38;12.80;;;8.37;;
7142;SDS011;3613;48.902;9.204;2023-04-07T01:36:07;14.73;;;8.67;;
7142;SDS011;3613;48.902;9.204;2023-04-07T01:38:34;13.60;;;8.73;;
7142;SDS011;3613;48.902;9.204;2023-04-07T01:41:01;14.53;;;9.50;;
7142;SDS011;3613;48.902;9.204;2023-04-07T01:43:30;14.07;;;9.03;;
7142;SDS011;3613;48.902;9.204;2023-04-07T01:46:00;12.37;;;8.53;;
7142;SDS011;3613;48.902;9.204;2023-04-07T01:48:27;14.20;;;8.63;;
7142;SDS011;3613;48.902;9.204;2023-04-07T01:50:53;13.23;;;8.77;;
7142;SDS011;3613;48.902;9.204;2023-04-07T01:53:20;14.83;;;8.87;;
7142;SDS011;3613;48.902;9.204;2023-04-07T01:55:52;13.07;;;8.47;;
7142;SDS011;3613;48.902;9.204;2023-04-07T01:58:18;14.57;;;8.33;;
7142;SDS011;3613;48.902;9.204;2023-04-07T02:00:44;12.00;;;7.93;;
7142;SDS011;3613;48.902;9.204;2023-04-07T02:03:12;13.47;;;8.30;;
7142;SDS011;3613;48.902;9.204;2023-04-07T02:05:44;12.47;;;8.40;;
7142;SDS011;3613;48.902;9.204;2023-04-07T02:08:15;15.00;;;8.17;;
7142;SDS011;3613;48.902;9.204;2023-04-07T02:10:42;13.67;;;8.10;;
7142;SDS011;3613;48.902;9.204;2023-04-07T02:13:08;12.23;;;7.80;;
7142;SDS011;3613;48.902;9.204;2023-04-07T02:15:41;11.80;;;8.20;;
7142;SDS011;3613;48.902;9.204;2023-04-07T02:18:11;10.93;;;8.47;;
7142;SDS011;3613;48.902;9.204;2023-04-07T02:20:41;12.43;;;8.43;;
7142;SDS011;3613;48.902;9.204;2023-04-07T02:23:12;13.87;;;8.33;;
7142;SDS011;3613;48.902;9.204;2023-04-07T02:25:38;12.40;;;7.80;;
7142;SDS011;3613;48.902;9.204;2023-04-07T02:28:06;12.77;;;8.00;;
7142;SDS011;3613;48.902;9.204;2023-04-07T02:30:32;12.00;;;8.17;;
7142;SDS011;3613;48.902;9.204;2023-04-07T02:32:58;12.93;;;8.07;;
7142;SDS011;3613;48.902;9.204;2023-04-07T02:35:26;12.07;;;7.90;;
7142;SDS011;3613;48.902;9.204;2023-04-07T02:37:52;13.00;;;7.97;;
7142;SDS011;3613;48.902;9.204;2023-04-07T02:40:18;13.93;;;8.23;;
7142;SDS011;3613;48.902;9.204;2023-04-07T02:42:44;12.07;;;8.57;;
7142;SDS011;3613;48.902;9.204;2023-04-07T02:45:12;10.37;;;8.20;;
7142;SDS011;3613;48.902;9.204;2023-04-07T02:47:41;10.27;;;7.53;;
7142;SDS011;3613;48.902;9.204;2023-04-07T02:50:07;10.87;;;7.70;;
7142;SDS011;3613;48.902;9.204;2023-04-07T02:52:33;11.33;;;8.33;;
7142;SDS011;3613;48.902;9.204;2023-04-07T02:55:01;13.03;;;7.20;;
7142;SDS011;3613;48.902;9.204;2023-04-07T02:57:27;11.70;;;8.00;;
7142;SDS011;3613;48.902;9.204;2023-04-07T02:59:53;13.07;;;8.47;;
7142;SDS011;3613;48.902;9.204;2023-04-07T03:02:23;11.37;;;8.20;;
7142;SDS011;3613;48.902;9.204;2023-04-07T03:04:50;13.80;;;7.53;;
7142;SDS011;3613;48.902;9.204;2023-04-07T03:07:17;10.63;;;7.57;;
7142;SDS011;3613;48.902;9.204;2023-04-07T03:09:45;11.33;;;7.60;;
7142;SDS011;3613;48.902;9.204;2023-04-07T03:12:13;11.87;;;7.37;;
7142;SDS011;3613;48.902;9.204;2023-04-07T03:14:42;11.37;;;8.17;;
7142;SDS011;3613;48.902;9.204;2023-04-07T03:17:08;12.90;;;8.13;;
7142;SDS011;3613;48.902;9.204;2023-04-07T03:19:36;11.43;;;8.13;;
7142;SDS011;3613;48.902;9.204;2023-04-07T03:22:02;14.13;;;8.67;;
7142;SDS011;3613;48.902;9.204;2023-04-07T03:24:28;13.23;;;8.37;;
7142;SDS011;3613;48.902;9.204;2023-04-07T03:26:54;11.73;;;8.23;;
7142;SDS011;3613;48.902;9.204;2023-04-07T03:29:20;12.80;;;8.73;;
7142;SDS011;3613;48.902;9.204;2023-04-07T03:31:46;12.67;;;8.47;;
7142;SDS011;3613;48.902;9.204;2023-04-07T03:34:12;12.40;;;8.13;;
7142;SDS011;3613;48.902;9.204;2023-04-07T03:36:38;13.63;;;9.23;;
7142;SDS011;3613;48.902;9.204;2023-04-07T03:39:06;14.97;;;9.00;;
7142;SDS011;3613;48.902;9.204;2023-04-07T03:41:32;11.07;;;8.63;;
7142;SDS011;3613;48.902;9.204;2023-04-07T03:43:57;11.77;;;8.40;;
7142;SDS011;3613;48.902;9.204;2023-04-07T03:46:23;11.93;;;8.37;;
7142;SDS011;3613;48.902;9.204;2023-04-07T03:48:54;12.23;;;8.83;;
7142;SDS011;3613;48.902;9.204;2023-04-07T03:51:22;12.23;;;8.27;;
7142;SDS011;3613;48.902;9.204;2023-04-07T03:53:50;12.37;;;9.37;;
7142;SDS011;3613;48.902;9.204;2023-04-07T03:56:15;12.97;;;8.37;;
7142;SDS011;3613;48.902;9.204;2023-04-07T03:58:41;11.17;;;8.20;;
7142;SDS011;3613;48.902;9.204;2023-04-07T04:01:08;14.47;;;9.33;;
7142;SDS011;3613;48.902;9.204;2023-04-07T04:03:34;15.93;;;9.60;;
7142;SDS011;3613;48.902;9.204;2023-04-07T04:06:02;14.33;;;8.53;;
7142;SDS011;3613;48.902;9.204;2023-04-07T04:08:28;12.53;;;8.73;;
7142;SDS011;3613;48.902;9.204;2023-04-07T04:10:54;13.90;;;8.70;;
7142;SDS011;3613;48.902;9.204;2023-04-07T04:13:20;14.87;;;8.57;;
7142;SDS011;3613;48.902;9.204;2023-04-07T04:15:46;11.90;;;9.27;;
7142;SDS011;3613;48.902;9.204;2023-04-07T04:18:12;12.60;;;9.00;;
7142;SDS011;3613;48.902;9.204;2023-04-07T04:20:38;13.27;;;8.70;;
7142;SDS011;3613;48.902;9.204;2023-04-07T04:23:03;15.53;;;9.53;;
7142;SDS011;3613;48.902;9.204;2023-04-07T04:25:31;11.80;;;8.53;;
7142;SDS011;3613;48.902;9.204;2023-04-07T04:28:00;15.40;;;9.20;;
7142;SDS011;3613;48.902;9.204;2023-04-07T04:30:28;14.80;;;9.40;;
7142;SDS011;3613;48.902;9.204;2023-04-07T04:32:56;13.07;;;9.17;;
7142;SDS011;3613;48.902;9.204;2023-04-07T04:35:22;13.13;;;8.77;;
7142;SDS011;3613;48.902;9.204;2023-04-07T04:37:47;15.40;;;9.40;;
7142;SDS011;3613;48.902;9.204;2023-04-07T04:40:13;15.80;;;10.27;;
7142;SDS011;3613;48.902;9.204;2023-04-07T04:42:39;13.33;;;9.17;;
7142;SDS011;3613;48.902;9.204;2023-04-07T04:45:05;14.60;;;8.53;;
7142;SDS011;3613;48.902;9.204;2023-04-07T04:47:34;15.30;;;8.90;;
7142;SDS011;3613;48.902;9.204;2023-04-07T04:50:00;13.83;;;9.33;;
7142;SDS011;3613;48.902;9.204;2023-04-07T04:52:26;13.00;;;9.37;;
7142;SDS011;3613;48.902;9.204;2023-04-07T04:54:52;13.93;;;9.37;;
7142;SDS011;3613;48.902;9.204;2023-04-07T04:57:18;14.50;;;9.37;;
7142;SDS011;3613;48.902;9.204;2023-04-07T04:59:44;14.50;;;8.40;;
7142;SDS011;3613;48.902;9.204;2023-04-07T05:02:10;13.63;;;8.73;;
7142;SDS011;3613;48.902;9.204;2023-04-07T05:04:36;14.17;;;9.00;;
7142;SDS011;3613;48.902;9.204;2023-04-07T05:07:06;14.10;;;9.27;;
7142;SDS011;3613;48.902;9.204;2023-04-07T05:09:34;14.57;;;9.20;;
7142;SDS011;3613;48.902;9.204;2023-04-07T05:12:00;15.03;;;9.40;;
7142;SDS011;3613;48.902;9.204;2023-04-07T05:14:26;13.97;;;8.70;;
7142;SDS011;3613;48.902;9.204;2023-04-07T05:16:52;13.97;;;9.33;;
7142;SDS011;3613;48.902;9.204;2023-04-07T05:19:18;17.07;;;10.13;;
7142;SDS011;3613;48.902;9.204;2023-04-07T05:21:44;15.00;;;10.07;;
7142;SDS011;3613;48.902;9.204;2023-04-07T05:24:10;12.83;;;8.87;;
7142;SDS011;3613;48.902;9.204;2023-04-07T05:26:41;14.50;;;9.07;;
7142;SDS011;3613;48.902;9.204;2023-04-07T05:29:07;14.30;;;9.70;;
7142;SDS011;3613;48.902;9.204;2023-04-07T05:31:32;16.50;;;9.00;;
7142;SDS011;3613;48.902;9.204;2023-04-07T05:34:03;13.80;;;9.07;;
7142;SDS011;3613;48.902;9.204;2023-04-07T05:36:29;14.00;;;9.83;;
7142;SDS011;3613;48.902;9.204;2023-04-07T05:38:55;14.50;;;9.73;;
7142;SDS011;3613;48.902;9.204;2023-04-07T05:41:21;13.20;;;9.23;;
7142;SDS011;3613;48.902;9.204;2023-04-07T05:43:50;13.07;;;8.73;;
7142;SDS011;3613;48.902;9.204;2023-04-07T05:46:15;13.67;;;9.50;;
7142;SDS011;3613;48.902;9.204;2023-04-07T05:48:41;14.77;;;9.77;;
7142;SDS011;3613;48.902;9.204;2023-04-07T05:51:07;15.53;;;9.73;;
7142;SDS011;3613;48.902;9.204;2023-04-07T05:53:33;14.50;;;9.30;;
7142;SDS011;3613;48.902;9.204;2023-04-07T05:55:59;16.57;;;8.87;;
7142;SDS011;3613;48.902;9.204;2023-04-07T05:58:25;16.20;;;9.20;;
7142;SDS011;3613;48.902;9.204;2023-04-07T06:00:54;14.77;;;9.57;;
7142;SDS011;3613;48.902;9.204;2023-04-07T06:03:19;17.03;;;9.57;;
7142;SDS011;3613;48.902;9.204;2023-04-07T06:05:48;14.47;;;9.70;;
7142;SDS011;3613;48.902;9.204;2023-04-07T06:08:14;16.13;;;9.70;;
7142;SDS011;3613;48.902;9.204;2023-04-07T06:10:42;12.10;;;9.40;;
7142;SDS011;3613;48.902;9.204;2023-04-07T06:13:08;14.27;;;9.57;;
7142;SDS011;3613;48.902;9.204;2023-04-07T06:15:36;16.20;;;9.77;;
7142;SDS011;3613;48.902;9.204;2023-04-07T06:18:02;16.17;;;10.03;;
7142;SDS011;3613;48.902;9.204;2023-04-07T06:20:30;14.83;;;9.67;;
7142;SDS011;3613;48.902;9.204;2023-04-07T06:22:56;14.17;;;9.47;;
7142;SDS011;3613;48.902;9.204;2023-04-07T06:25:24;15.07;;;9.40;;
7142;SDS011;3613;48.902;9.204;2023-04-07T06:27:50;15.13;;;9.70;;
7142;SDS011;3613;48.902;9.204;2023-04-07T06:30:18;14.23;;;9.87;;
7142;SDS011;3613;48.902;9.204;2023-04-07T06:32:46;15.47;;;9.80;;
7142;SDS011;3613;48.902;9.204;2023-04-07T06:35:12;14.57;;;10.30;;
7142;SDS011;3613;48.902;9.204;2023-04-07T06:37:38;15.47;;;10.27;;
7142;SDS011;3613;48.902;9.204;2023-04-07T06:40:05;13.70;;;9.57;;
7142;SDS011;3613;48.902;9.204;2023-04-07T06:42:31;14.27;;;9.37;;
7142;SDS011;3613;48.902;9.204;2023-04-07T06:44:57;14.47;;;9.60;;
7142;SDS011;3613;48.902;9.204;2023-04-07T06:47:25;14.83;;;10.00;;
7142;SDS011;3613;48.902;9.204;2023-04-07T06:49:52;13.77;;;9.73;;
7142;SDS011;3613;48.902;9.204;2023-04-07T06:52:18;16.70;;;10.03;;
7142;SDS011;3613;48.902;9.204;2023-04-07T06:54:44;13.77;;;9.27;;
7142;SDS011;3613;48.902;9.204;2023-04-07T06:57:10;13.27;;;8.60;;
7142;SDS011;3613;48.902;9.204;2023-04-07T06:59:38;13.47;;;9.83;;
7142;SDS011;3613;48.902;9.204;2023-04-07T07:02:04;14.37;;;9.27;;
7142;SDS011;3613;48.902;9.204;2023-04-07T07:04:31;12.33;;;9.23;;
7142;SDS011;3613;48.902;9.204;2023-04-07T07:06:57;14.27;;;9.27;;
7142;SDS011;3613;48.902;9.204;2023-04-07T07:09:23;13.27;;;8.73;;
7142;SDS011;3613;48.902;9.204;2023-04-07T07:11:50;12.33;;;8.93;;
7142;SDS011;3613;48.902;9.204;2023-04-07T07:14:16;13.67;;;8.80;;
7142;SDS011;3613;48.902;9.204;2023-04-07T07:16:42;12.90;;;8.93;;
7142;SDS011;3613;48.902;9.204;2023-04-07T07:19:07;13.73;;;9.03;;
7142;SDS011;3613;48.902;9.204;2023-04-07T07:21:38;12.07;;;8.83;;
7142;SDS011;3613;48.902;9.204;2023-04-07T07:24:04;12.43;;;9.00;;
7142;SDS011;3613;48.902;9.204;2023-04-07T07:26:30;11.30;;;8.40;;
7142;SDS011;3613;48.902;9.204;2023-04-07T07:28:56;10.13;;;7.73;;
7142;SDS011;3613;48.902;9.204;2023-04-07T07:31:21;9.87;;;7.43;;
7142;SDS011;3613;48.902;9.204;2023-04-07T07:33:48;8.77;;;7.27;;
7142;SDS011;3613;48.902;9.204;2023-04-07T07:36:15;9.13;;;7.30;;
7142;SDS011;3613;48.902;9.204;2023-04-07T07:38:41;9.57;;;7.60;;
7142;SDS011;3613;48.902;9.204;2023-04-07T07:41:06;9.37;;;7.57;;
7142;SDS011;3613;48.902;9.204;2023-04-07T07:43:32;9.50;;;7.73;;
7142;SDS011;3613;48.902;9.204;2023-04-07T07:45:58;8.90;;;7.00;;
7142;SDS011;3613;48.902;9.204;2023-04-07T07:48:24;9.00;;;7.40;;
7142;SDS011;3613;48.902;9.204;2023-04-07T07:50:50;8.50;;;7.27;;
7142;SDS011;3613;48.902;9.204;2023-04-07T07:53:16;7.93;;;7.00;;
7142;SDS011;3613;48.902;9.204;2023-04-07T07:55:45;8.00;;;6.67;;
7142;SDS011;3613;48.902;9.204;2023-04-07T07:58:11;8.00;;;7.20;;
7142;SDS011;3613;48.902;9.204;2023-04-07T08:00:36;8.47;;;6.97;;
7142;SDS011;3613;48.902;9.204;2023-04-07T08:03:02;9.60;;;7.00;;
7142;SDS011;3613;48.902;9.204;2023-04-07T08:05:28;8.33;;;6.70;;
7142;SDS011;3613;48.902;9.204;2023-04-07T08:07:54;8.00;;;7.20;;
7142;SDS011;3613;48.902;9.204;2023-04-07T08:10:20;7.47;;;6.40;;
7142;SDS011;3613;48.902;9.204;2023-04-07T08:12:49;7.37;;;6.20;;
7142;SDS011;3613;48.902;9.204;2023-04-07T08:15:15;7.50;;;5.97;;
7142;SDS011;3613;48.902;9.204;2023-04-07T08:17:45;6.83;;;6.13;;
7142;SDS011;3613;48.902;9.204;2023-04-07T08:20:11;8.77;;;6.17;;
7142;SDS011;3613;48.902;9.204;2023-04-07T08:22:39;7.70;;;6.13;;
7142;SDS011;3613;48.902;9.204;2023-04-07T08:25:07;8.33;;;5.93;;
7142;SDS011;3613;48.902;9.204;2023-04-07T08:27:33;9.70;;;6.67;;
7142;SDS011;3613;48.902;9.204;2023-04-07T08:29:59;7.93;;;6.47;;
7142;SDS011;3613;48.902;9.204;2023-04-07T08:33:00;8.07;;;6.83;;
7142;SDS011;3613;48.902;9.204;2023-04-07T08:35:18;7.93;;;6.40;;
7142;SDS011;3613;48.902;9.204;2023-04-07T08:37:44;7.30;;;5.90;;
7142;SDS011;3613;48.902;9.204;2023-04-07T08:40:11;9.00;;;5.70;;
7142;SDS011;3613;48.902;9.204;2023-04-07T08:42:41;7.13;;;5.90;;
7142;SDS011;3613;48.902;9.204;2023-04-07T08:45:10;7.60;;;6.00;;
7142;SDS011;3613;48.902;9.204;2023-04-07T08:47:40;9.93;;;5.70;;
7142;SDS011;3613;48.902;9.204;2023-04-07T08:50:08;7.83;;;7.00;;
7142;SDS011;3613;48.902;9.204;2023-04-07T08:55:12;6.60;;;5.90;;
7142;SDS011;3613;48.902;9.204;2023-04-07T08:57:38;6.77;;;5.67;;
7142;SDS011;3613;48.902;9.204;2023-04-07T09:00:05;9.17;;;7.13;;
7142;SDS011;3613;48.902;9.204;2023-04-07T09:02:36;8.23;;;6.87;;
7142;SDS011;3613;48.902;9.204;2023-04-07T09:05:06;7.90;;;5.97;;
7142;SDS011;3613;48.902;9.204;2023-04-07T09:07:36;7.13;;;6.03;;
7142;SDS011;3613;48.902;9.204;2023-04-07T09:10:03;8.53;;;6.53;;
7142;SDS011;3613;48.902;9.204;2023-04-07T09:12:29;8.23;;;6.90;;
7142;SDS011;3613;48.902;9.204;2023-04-07T09:14:57;7.07;;;6.13;;
7142;SDS011;3613;48.902;9.204;2023-04-07T09:17:26;9.10;;;6.23;;
7142;SDS011;3613;48.902;9.204;2023-04-07T09:19:57;7.97;;;6.30;;
7142;SDS011;3613;48.902;9.204;2023-04-07T09:22:37;8.23;;;6.10;;
7142;SDS011;3613;48.902;9.204;2023-04-07T09:27:53;7.80;;;6.60;;
7142;SDS011;3613;48.902;9.204;2023-04-07T09:30:21;7.90;;;5.80;;
7142;SDS011;3613;48.902;9.204;2023-04-07T09:32:47;9.33;;;5.90;;
7142;SDS011;3613;48.902;9.204;2023-04-07T09:35:16;6.43;;;5.20;;
7142;SDS011;3613;48.902;9.204;2023-04-07T09:37:42;8.70;;;6.33;;
7142;SDS011;3613;48.902;9.204;2023-04-07T09:40:09;7.70;;;5.37;;
7142;SDS011;3613;48.902;9.204;2023-04-07T09:42:43;6.50;;;5.30;;
7142;SDS011;3613;48.902;9.204;2023-04-07T09:45:10;8.20;;;5.83;;
7142;SDS011;3613;48.902;9.204;2023-04-07T09:47:36;7.33;;;5.70;;
7142;SDS011;3613;48.902;9.204;2023-04-07T09:50:02;6.43;;;5.73;;
7142;SDS011;3613;48.902;9.204;2023-04-07T09:55:27;6.97;;;5.90;;
7142;SDS011;3613;48.902;9.204;2023-04-07T09:57:53;7.37;;;5.20;;
7142;SDS011;3613;48.902;9.204;2023-04-07T10:00:20;9.77;;;6.50;;
7142;SDS011;3613;48.902;9.204;2023-04-07T10:02:46;7.67;;;6.13;;
7142;SDS011;3613;48.902;9.204;2023-04-07T10:05:13;7.13;;;6.23;;
7142;SDS011;3613;48.902;9.204;2023-04-07T10:07:39;8.03;;;5.23;;
7142;SDS011;3613;48.902;9.204;2023-04-07T10:10:05;7.30;;;5.30;;
7142;SDS011;3613;48.902;9.204;2023-04-07T10:12:33;5.73;;;4.67;;
7142;SDS011;3613;48.902;9.204;2023-04-07T10:15:01;7.10;;;5.30;;
7142;SDS011;3613;48.902;9.204;2023-04-07T10:17:30;5.97;;;4.80;;
7142;SDS011;3613;48.902;9.204;2023-04-07T10:19:57;7.03;;;5.00;;
7142;SDS011;3613;48.902;9.204;2023-04-07T10:22:24;7.50;;;4.93;;
7142;SDS011;3613;48.902;9.204;2023-04-07T10:27:26;5.23;;;4.73;;
7142;SDS011;3613;48.902;9.204;2023-04-07T10:30:01;8.33;;;5.53;;
7142;SDS011;3613;48.902;9.204;2023-04-07T10:32:30;7.77;;;6.07;;
7142;SDS011;3613;48.902;9.204;2023-04-07T10:34:56;8.87;;;6.00;;
7142;SDS011;3613;48.902;9.204;2023-04-07T10:37:23;7.43;;;5.90;;
7142;SDS011;3613;48.902;9.204;2023-04-07T10:42:45;7.90;;;5.67;;
7142;SDS011;3613;48.902;9.204;2023-04-07T10:45:14;8.10;;;5.70;;
7142;SDS011;3613;48.902;9.204;2023-04-07T10:50:27;6.73;;;5.17;;
7142;SDS011;3613;48.902;9.204;2023-04-07T11:03:40;10.67;;;5.50;;
7142;SDS011;3613;48.902;9.204;2023-04-07T11:06:07;11.00;;;6.27;;
7142;SDS011;3613;48.902;9.204;2023-04-07T11:08:34;8.23;;;5.63;;
7142;SDS011;3613;48.902;9.204;2023-04-07T11:11:02;8.73;;;5.40;;
7142;SDS011;3613;48.902;9.204;2023-04-07T11:13:42;8.63;;;5.93;;
7142;SDS011;3613;48.902;9.204;2023-04-07T11:16:16;6.60;;;5.20;;
7142;SDS011;3613;48.902;9.204;2023-04-07T11:18:43;6.63;;;4.93;;
7142;SDS011;3613;48.902;9.204;2023-04-07T11:21:10;5.87;;;4.70;;
7142;SDS011;3613;48.902;9.204;2023-04-07T11:23:39;4.67;;;4.20;;
7142;SDS011;3613;48.902;9.204;2023-04-07T11:26:09;6.50;;;4.70;;
7142;SDS011;3613;48.902;9.204;2023-04-07T11:31:27;6.50;;;4.47;;
7142;SDS011;3613;48.902;9.204;2023-04-07T11:34:01;10.67;;;5.53;;
7142;SDS011;3613;48.902;9.204;2023-04-07T11:36:32;7.33;;;5.27;;
7142;SDS011;3613;48.902;9.204;2023-04-07T11:38:59;7.03;;;5.60;;
7142;SDS011;3613;48.902;9.204;2023-04-07T11:41:27;5.80;;;5.20;;
7142;SDS011;3613;48.902;9.204;2023-04-07T11:44:07;6.37;;;5.17;;
7142;SDS011;3613;48.902;9.204;2023-04-07T11:46:34;6.83;;;4.73;;
7142;SDS011;3613;48.902;9.204;2023-04-07T11:49:16;4.60;;;4.13;;
7142;SDS011;3613;48.902;9.204;2023-04-07T11:51:42;5.23;;;4.30;;
7142;SDS011;3613;48.902;9.204;2023-04-07T11:54:09;4.83;;;4.03;;
7142;SDS011;3613;48.902;9.204;2023-04-07T11:56:44;5.67;;;3.60;;
7142;SDS011;3613;48.902;9.204;2023-04-07T11:59:19;5.73;;;3.60;;
7142;SDS011;3613;48.902;9.204;2023-04-07T12:01:47;4.60;;;3.00;;
7142;SDS011;3613;48.902;9.204;2023-04-07T12:04:13;5.10;;;2.80;;
7142;SDS011;3613;48.902;9.204;2023-04-07T12:06:47;4.30;;;3.10;;
7142;SDS011;3613;48.902;9.204;2023-04-07T12:09:26;5.33;;;3.40;;
7142;SDS011;3613;48.902;9.204;2023-04-07T12:11:56;4.20;;;3.43;;
7142;SDS011;3613;48.902;9.204;2023-04-07T12:14:23;4.37;;;3.00;;
7142;SDS011;3613;48.902;9.204;2023-04-07T12:16:49;2.90;;;2.57;;
7142;SDS011;3613;48.902;9.204;2023-04-07T12:19:15;4.00;;;3.03;;
7142;SDS011;3613;48.902;9.204;2023-04-07T12:21:41;4.83;;;2.77;;
7142;SDS011;3613;48.902;9.204;2023-04-07T12:24:07;3.57;;;2.70;;
7142;SDS011;3613;48.902;9.204;2023-04-07T12:26:33;3.53;;;2.60;;
7142;SDS011;3613;48.902;9.204;2023-04-07T12:28:59;3.93;;;2.60;;
7142;SDS011;3613;48.902;9.204;2023-04-07T12:31:29;5.87;;;3.00;;
7142;SDS011;3613;48.902;9.204;2023-04-07T12:34:01;4.13;;;3.00;;
7142;SDS011;3613;48.902;9.204;2023-04-07T12:36:27;4.93;;;3.20;;
7142;SDS011;3613;48.902;9.204;2023-04-07T12:38:57;4.10;;;3.17;;
7142;SDS011;3613;48.902;9.204;2023-04-07T12:41:23;5.50;;;3.57;;
7142;SDS011;3613;48.902;9.204;2023-04-07T12:43:49;4.23;;;3.33;;
7142;SDS011;3613;48.902;9.204;2023-04-07T12:46:15;5.43;;;3.67;;
7142;SDS011;3613;48.902;9.204;2023-04-07T12:48:41;5.90;;;4.07;;
7142;SDS011;3613;48.902;9.204;2023-04-07T12:51:12;5.67;;;3.50;;
7142;SDS011;3613;48.902;9.204;2023-04-07T12:53:40;5.23;;;4.30;;
7142;SDS011;3613;48.902;9.204;2023-04-07T12:56:06;6.40;;;4.00;;
7142;SDS011;3613;48.902;9.204;2023-04-07T12:58:32;5.73;;;4.40;;
7142;SDS011;3613;48.902;9.204;2023-04-07T13:01:01;7.80;;;5.10;;
7142;SDS011;3613;48.902;9.204;2023-04-07T13:03:27;8.57;;;5.17;;
7142;SDS011;3613;48.902;9.204;2023-04-07T13:05:53;5.90;;;4.70;;
7142;SDS011;3613;48.902;9.204;2023-04-07T13:08:19;9.90;;;4.97;;
7142;SDS011;3613;48.902;9.204;2023-04-07T13:10:46;6.13;;;4.13;;
7142;SDS011;3613;48.902;9.204;2023-04-07T13:13:13;6.63;;;4.20;;
7142;SDS011;3613;48.902;9.204;2023-04-07T13:15:42;8.07;;;4.60;;
7142;SDS011;3613;48.902;9.204;2023-04-07T13:18:08;7.47;;;4.67;;
7142;SDS011;3613;48.902;9.204;2023-04-07T13:20:34;6.43;;;4.63;;
7142;SDS011;3613;48.902;9.204;2023-04-07T13:22:59;6.57;;;4.30;;
7142;SDS011;3613;48.902;9.204;2023-04-07T13:25:28;5.77;;;4.37;;
7142;SDS011;3613;48.902;9.204;2023-04-07T13:27:53;4.60;;;3.90;;
7142;SDS011;3613;48.902;9.204;2023-04-07T13:30:23;7.30;;;4.10;;
7142;SDS011;3613;48.902;9.204;2023-04-07T13:32:49;6.27;;;4.03;;
7142;SDS011;3613;48.902;9.204;2023-04-07T13:35:18;4.60;;;3.50;;
7142;SDS011;3613;48.902;9.204;2023-04-07T13:37:46;4.70;;;3.87;;
7142;SDS011;3613;48.902;9.204;2023-04-07T13:40:12;4.43;;;3.77;;
7142;SDS011;3613;48.902;9.204;2023-04-07T13:42:38;5.33;;;3.60;;
7142;SDS011;3613;48.902;9.204;2023-04-07T13:45:04;5.07;;;3.50;;
7142;SDS011;3613;48.902;9.204;2023-04-07T13:47:30;4.33;;;3.87;;
7142;SDS011;3613;48.902;9.204;2023-04-07T13:50:01;5.53;;;3.77;;
7142;SDS011;3613;48.902;9.204;2023-04-07T13:52:28;4.80;;;3.50;;
7142;SDS011;3613;48.902;9.204;2023-04-07T13:54:54;4.57;;;3.80;;
7142;SDS011;3613;48.902;9.204;2023-04-07T13:57:22;6.80;;;3.53;;
7142;SDS011;3613;48.902;9.204;2023-04-07T13:59:49;3.87;;;3.40;;
7142;SDS011;3613;48.902;9.204;2023-04-07T14:02:20;5.80;;;4.17;;
7142;SDS011;3613;48.902;9.204;2023-04-07T14:04:49;4.20;;;3.27;;
7142;SDS011;3613;48.902;9.204;2023-04-07T14:07:18;4.83;;;3.50;;
7142;SDS011;3613;48.902;9.204;2023-04-07T14:09:46;5.10;;;3.47;;
7142;SDS011;3613;48.902;9.204;2023-04-07T14:12:12;4.60;;;3.60;;
7142;SDS011;3613;48.902;9.204;2023-04-07T14:14:38;6.00;;;3.60;;
7142;SDS011;3613;48.902;9.204;2023-04-07T14:17:04;7.03;;;3.40;;
7142;SDS011;3613;48.902;9.204;2023-04-07T14:19:30;4.93;;;3.50;;
7142;SDS011;3613;48.902;9.204;2023-04-07T14:21:57;8.03;;;3.80;;
7142;SDS011;3613;48.902;9.204;2023-04-07T14:24:25;5.87;;;3.30;;
7142;SDS011;3613;48.902;9.204;2023-04-07T14:26:51;6.57;;;3.60;;
7142;SDS011;3613;48.902;9.204;2023-04-07T14:29:21;5.47;;;3.83;;
7142;SDS011;3613;48.902;9.204;2023-04-07T14:31:49;7.40;;;3.80;;
7142;SDS011;3613;48.902;9.204;2023-04-07T14:34:15;6.50;;;3.90;;
7142;SDS011;3613;48.902;9.204;2023-04-07T14:36:42;4.17;;;3.77;;
7142;SDS011;3613;48.902;9.204;2023-04-07T14:39:17;6.30;;;4.33;;
7142;SDS011;3613;48.902;9.204;2023-04-07T14:41:45;9.13;;;4.30;;
7142;SDS011;3613;48.902;9.204;2023-04-07T14:44:12;5.77;;;3.50;;
7142;SDS011;3613;48.902;9.204;2023-04-07T14:46:38;4.70;;;3.00;;
7142;SDS011;3613;48.902;9.204;2023-04-07T14:49:04;6.00;;;3.27;;
7142;SDS011;3613;48.902;9.204;2023-04-07T14:51:32;4.07;;;3.00;;
7142;SDS011;3613;48.902;9.204;2023-04-07T14:54:00;3.50;;;3.20;;
7142;SDS011;3613;48.902;9.204;2023-04-07T14:56:26;4.10;;;3.10;;
7142;SDS011;3613;48.902;9.204;2023-04-07T14:58:52;4.57;;;3.27;;
7142;SDS011;3613;48.902;9.204;2023-04-07T15:01:20;3.73;;;2.77;;
7142;SDS011;3613;48.902;9.204;2023-04-07T15:03:46;4.13;;;2.87;;
7142;SDS011;3613;48.902;9.204;2023-04-07T15:06:12;4.23;;;2.70;;
7142;SDS011;3613;48.902;9.204;2023-04-07T15:08:40;5.23;;;2.87;;
7142;SDS011;3613;48.902;9.204;2023-04-07T15:11:07;13.83;;;8.37;;
7142;SDS011;3613;48.902;9.204;2023-04-07T15:13:33;5.10;;;3.17;;
7142;SDS011;3613;48.902;9.204;2023-04-07T15:16:09;4.20;;;2.90;;
7142;SDS011;3613;48.902;9.204;2023-04-07T15:18:40;8.87;;;5.83;;
7142;SDS011;3613;48.902;9.204;2023-04-07T15:21:07;4.37;;;3.30;;
7142;SDS011;3613;48.902;9.204;2023-04-07T15:23:34;7.03;;;3.60;;
7142;SDS011;3613;48.902;9.204;2023-04-07T15:26:04;3.60;;;2.30;;
7142;SDS011;3613;48.902;9.204;2023-04-07T15:28:33;4.60;;;2.70;;
7142;SDS011;3613;48.902;9.204;2023-04-07T15:30:59;3.90;;;2.47;;
7142;SDS011;3613;48.902;9.204;2023-04-07T15:33:25;3.60;;;2.93;;
7142;SDS011;3613;48.902;9.204;2023-04-07T15:35:56;3.23;;;2.50;;
7142;SDS011;3613;48.902;9.204;2023-04-07T15:38:23;3.83;;;2.23;;
7142;SDS011;3613;48.902;9.204;2023-04-07T15:40:51;3.23;;;2.17;;
7142;SDS011;3613;48.902;9.204;2023-04-07T15:43:16;4.37;;;2.37;;
7142;SDS011;3613;48.902;9.204;2023-04-07T15:45:43;6.93;;;5.03;;
7142;SDS011;3613;48.902;9.204;2023-04-07T15:48:11;4.57;;;3.10;;